sensor_id;sensor_type;location;lat;lon;timestamp;pressure;altitude;pressure_sealevel;temperature
20733;BMP180;10527;52.124;5.196;2023-02-28T00:01:40;103043.00;;;13.60
20733;BMP180;10527;52.124;5.196;2023-02-28T00:04:07;103040.00;;;13.60
20733;BMP180;10527;52.124;5.196;2023-02-28T00:06:35;103034.00;;;13.60
20733;BMP180;10527;52.124;5.196;2023-02-28T00:09:02;103049.00;;;13.70
20733;BMP180;10527;52.124;5.196;2023-02-28T00:11:29;103046.00;;;13.70
20733;BMP180;10527;52.124;5.196;2023-02-28T00:13:59;103040.00;;;13.70
20733;BMP180;10527;52.124;5.196;2023-02-28T00:16:26;103044.00;;;13.70
20733;BMP180;10527;52.124;5.196;2023-02-28T00:18:53;103039.00;;;13.70
20733;BMP180;10527;52.124;5.196;2023-02-28T00:21:20;103047.00;;;13.70
20733;BMP180;10527;52.124;5.196;2023-02-28T00:23:47;103055.00;;;13.80
20733;BMP180;10527;52.124;5.196;2023-02-28T00:26:15;103049.00;;;13.80
20733;BMP180;10527;52.124;5.196;2023-02-28T00:28:41;103049.00;;;13.80
20733;BMP180;10527;52.124;5.196;2023-02-28T00:31:08;103040.00;;;13.80
20733;BMP180;10527;52.124;5.196;2023-02-28T00:33:35;103048.00;;;13.80
20733;BMP180;10527;52.124;5.196;2023-02-28T00:36:09;103050.00;;;13.80
20733;BMP180;10527;52.124;5.196;2023-02-28T00:38:38;103051.00;;;13.80
20733;BMP180;10527;52.124;5.196;2023-02-28T00:41:05;103051.00;;;13.80
20733;BMP180;10527;52.124;5.196;2023-02-28T00:43:35;103046.00;;;13.80
20733;BMP180;10527;52.124;5.196;2023-02-28T00:46:09;103048.00;;;13.90
20733;BMP180;10527;52.124;5.196;2023-02-28T00:48:36;103046.00;;;13.90
20733;BMP180;10527;52.124;5.196;2023-02-28T00:51:04;103039.00;;;13.90
20733;BMP180;10527;52.124;5.196;2023-02-28T00:53:32;103047.00;;;13.90
20733;BMP180;10527;52.124;5.196;2023-02-28T00:55:59;103041.00;;;13.90
20733;BMP180;10527;52.124;5.196;2023-02-28T00:58:29;103043.00;;;13.90
20733;BMP180;10527;52.124;5.196;2023-02-28T01:00:59;103023.00;;;13.90
20733;BMP180;10527;52.124;5.196;2023-02-28T01:03:26;103034.00;;;13.90
20733;BMP180;10527;52.124;5.196;2023-02-28T01:05:53;103033.00;;;13.90
20733;BMP180;10527;52.124;5.196;2023-02-28T01:08:20;103035.00;;;13.90
20733;BMP180;10527;52.124;5.196;2023-02-28T01:10:47;103046.00;;;14.00
20733;BMP180;10527;52.124;5.196;2023-02-28T01:13:14;103041.00;;;14.00
20733;BMP180;10527;52.124;5.196;2023-02-28T01:15:57;103044.00;;;14.00
20733;BMP180;10527;52.124;5.196;2023-02-28T01:18:24;103051.00;;;14.00
20733;BMP180;10527;52.124;5.196;2023-02-28T01:20:51;103046.00;;;14.00
20733;BMP180;10527;52.124;5.196;2023-02-28T01:23:20;103046.00;;;14.00
20733;BMP180;10527;52.124;5.196;2023-02-28T01:25:52;103043.00;;;14.00
20733;BMP180;10527;52.124;5.196;2023-02-28T01:28:19;103040.00;;;14.00
20733;BMP180;10527;52.124;5.196;2023-02-28T01:30:50;103036.00;;;14.00
20733;BMP180;10527;52.124;5.196;2023-02-28T01:33:21;103030.00;;;14.00
20733;BMP180;10527;52.124;5.196;2023-02-28T01:35:57;103030.00;;;14.00
20733;BMP180;10527;52.124;5.196;2023-02-28T01:38:24;103026.00;;;14.00
20733;BMP180;10527;52.124;5.196;2023-02-28T01:40:54;103032.00;;;14.00
20733;BMP180;10527;52.124;5.196;2023-02-28T01:43:31;103020.00;;;14.00
20733;BMP180;10527;52.124;5.196;2023-02-28T01:45:59;103026.00;;;14.00
20733;BMP180;10527;52.124;5.196;2023-02-28T01:48:35;103023.00;;;14.10
20733;BMP180;10527;52.124;5.196;2023-02-28T01:51:11;103030.00;;;14.10
20733;BMP180;10527;52.124;5.196;2023-02-28T01:53:47;103021.00;;;14.10
20733;BMP180;10527;52.124;5.196;2023-02-28T01:56:21;103022.00;;;14.10
20733;BMP180;10527;52.124;5.196;2023-02-28T01:58:54;103024.00;;;14.10
20733;BMP180;10527;52.124;5.196;2023-02-28T02:01:23;103020.00;;;14.10
20733;BMP180;10527;52.124;5.196;2023-02-28T02:03:56;103024.00;;;14.10
20733;BMP180;10527;52.124;5.196;2023-02-28T02:06:28;103011.00;;;14.10
20733;BMP180;10527;52.124;5.196;2023-02-28T02:08:56;103012.00;;;14.10
20733;BMP180;10527;52.124;5.196;2023-02-28T02:11:26;103014.00;;;14.10
20733;BMP180;10527;52.124;5.196;2023-02-28T02:14:37;102999.00;;;14.10
20733;BMP180;10527;52.124;5.196;2023-02-28T02:17:21;102996.00;;;14.10
20733;BMP180;10527;52.124;5.196;2023-02-28T02:20:54;102993.00;;;14.10
20733;BMP180;10527;52.124;5.196;2023-02-28T02:30:27;103009.00;;;14.00
20733;BMP180;10527;52.124;5.196;2023-02-28T02:36:23;103005.00;;;14.00
20733;BMP180;10527;52.124;5.196;2023-02-28T02:39:22;103007.00;;;14.00
20733;BMP180;10527;52.124;5.196;2023-02-28T02:41:56;103002.00;;;14.00
20733;BMP180;10527;52.124;5.196;2023-02-28T02:44:33;103008.00;;;14.00
20733;BMP180;10527;52.124;5.196;2023-02-28T02:47:12;103006.00;;;14.00
20733;BMP180;10527;52.124;5.196;2023-02-28T02:49:47;103002.00;;;14.00
20733;BMP180;10527;52.124;5.196;2023-02-28T02:52:21;103006.00;;;14.00
20733;BMP180;10527;52.124;5.196;2023-02-28T02:54:52;103004.00;;;14.00
20733;BMP180;10527;52.124;5.196;2023-02-28T02:57:36;103008.00;;;14.00
20733;BMP180;10527;52.124;5.196;2023-02-28T03:00:06;103006.00;;;14.00
20733;BMP180;10527;52.124;5.196;2023-02-28T03:02:37;103000.00;;;14.00
20733;BMP180;10527;52.124;5.196;2023-02-28T03:05:23;102997.00;;;14.00
20733;BMP180;10527;52.124;5.196;2023-02-28T03:07:51;102996.00;;;14.00
20733;BMP180;10527;52.124;5.196;2023-02-28T03:10:38;103006.00;;;14.10
20733;BMP180;10527;52.124;5.196;2023-02-28T03:13:51;103007.00;;;14.10
20733;BMP180;10527;52.124;5.196;2023-02-28T03:20:08;103003.00;;;14.10
20733;BMP180;10527;52.124;5.196;2023-02-28T03:25:56;103000.00;;;14.10
20733;BMP180;10527;52.124;5.196;2023-02-28T03:31:07;103005.00;;;14.20
20733;BMP180;10527;52.124;5.196;2023-02-28T03:33:58;103004.00;;;14.20
20733;BMP180;10527;52.124;5.196;2023-02-28T03:36:30;103014.00;;;14.20
20733;BMP180;10527;52.124;5.196;2023-02-28T03:39:04;103012.00;;;14.20
20733;BMP180;10527;52.124;5.196;2023-02-28T03:41:59;103000.00;;;14.30
20733;BMP180;10527;52.124;5.196;2023-02-28T03:44:51;103011.00;;;14.30
20733;BMP180;10527;52.124;5.196;2023-02-28T03:47:43;103005.00;;;14.30
20733;BMP180;10527;52.124;5.196;2023-02-28T03:50:18;103006.00;;;14.30
20733;BMP180;10527;52.124;5.196;2023-02-28T03:52:55;103010.00;;;14.30
20733;BMP180;10527;52.124;5.196;2023-02-28T03:55:49;103006.00;;;14.30
20733;BMP180;10527;52.124;5.196;2023-02-28T03:59:00;103015.00;;;14.30
20733;BMP180;10527;52.124;5.196;2023-02-28T04:01:33;103012.00;;;14.20
20733;BMP180;10527;52.124;5.196;2023-02-28T04:04:05;103016.00;;;14.20
20733;BMP180;10527;52.124;5.196;2023-02-28T04:06:33;103018.00;;;14.20
20733;BMP180;10527;52.124;5.196;2023-02-28T04:09:02;103020.00;;;14.20
20733;BMP180;10527;52.124;5.196;2023-02-28T04:11:44;103017.00;;;14.30
20733;BMP180;10527;52.124;5.196;2023-02-28T04:14:15;103018.00;;;14.30
20733;BMP180;10527;52.124;5.196;2023-02-28T04:16:42;103022.00;;;14.30
20733;BMP180;10527;52.124;5.196;2023-02-28T04:19:12;103025.00;;;14.30
20733;BMP180;10527;52.124;5.196;2023-02-28T04:21:46;103022.00;;;14.30
20733;BMP180;10527;52.124;5.196;2023-02-28T04:24:18;103017.00;;;14.30
20733;BMP180;10527;52.124;5.196;2023-02-28T04:26:48;103028.00;;;14.30
20733;BMP180;10527;52.124;5.196;2023-02-28T04:29:26;103028.00;;;14.30
20733;BMP180;10527;52.124;5.196;2023-02-28T04:31:57;103026.00;;;14.30
20733;BMP180;10527;52.124;5.196;2023-02-28T04:34:27;103023.00;;;14.20
20733;BMP180;10527;52.124;5.196;2023-02-28T04:36:55;103022.00;;;14.20
20733;BMP180;10527;52.124;5.196;2023-02-28T04:39:39;103027.00;;;14.20
20733;BMP180;10527;52.124;5.196;2023-02-28T04:42:06;103031.00;;;14.20
20733;BMP180;10527;52.124;5.196;2023-02-28T04:44:36;103028.00;;;14.20
20733;BMP180;10527;52.124;5.196;2023-02-28T04:47:03;103027.00;;;14.20
20733;BMP180;10527;52.124;5.196;2023-02-28T04:49:29;103028.00;;;14.20
20733;BMP180;10527;52.124;5.196;2023-02-28T04:51:56;103029.00;;;14.20
20733;BMP180;10527;52.124;5.196;2023-02-28T04:54:26;103025.00;;;14.20
20733;BMP180;10527;52.124;5.196;2023-02-28T04:56:56;103034.00;;;14.20
20733;BMP180;10527;52.124;5.196;2023-02-28T04:59:23;103037.00;;;14.20
20733;BMP180;10527;52.124;5.196;2023-02-28T05:01:49;103029.00;;;14.10
20733;BMP180;10527;52.124;5.196;2023-02-28T05:04:17;103030.00;;;14.10
20733;BMP180;10527;52.124;5.196;2023-02-28T05:06:44;103027.00;;;14.10
20733;BMP180;10527;52.124;5.196;2023-02-28T05:09:16;103025.00;;;14.00
20733;BMP180;10527;52.124;5.196;2023-02-28T05:11:43;103020.00;;;14.00
20733;BMP180;10527;52.124;5.196;2023-02-28T05:14:13;103019.00;;;14.10
20733;BMP180;10527;52.124;5.196;2023-02-28T05:16:40;103023.00;;;14.00
20733;BMP180;10527;52.124;5.196;2023-02-28T05:19:09;103029.00;;;14.00
20733;BMP180;10527;52.124;5.196;2023-02-28T05:21:49;103031.00;;;14.00
20733;BMP180;10527;52.124;5.196;2023-02-28T05:24:19;103029.00;;;13.90
20733;BMP180;10527;52.124;5.196;2023-02-28T05:26:52;103025.00;;;13.90
20733;BMP180;10527;52.124;5.196;2023-02-28T05:29:20;103029.00;;;13.90
20733;BMP180;10527;52.124;5.196;2023-02-28T05:31:47;103028.00;;;13.90
20733;BMP180;10527;52.124;5.196;2023-02-28T05:34:14;103041.00;;;13.90
20733;BMP180;10527;52.124;5.196;2023-02-28T05:36:45;103042.00;;;13.90
20733;BMP180;10527;52.124;5.196;2023-02-28T05:39:12;103044.00;;;13.80
20733;BMP180;10527;52.124;5.196;2023-02-28T05:41:43;103036.00;;;13.80
20733;BMP180;10527;52.124;5.196;2023-02-28T05:44:11;103038.00;;;13.80
20733;BMP180;10527;52.124;5.196;2023-02-28T05:46:38;103032.00;;;13.70
20733;BMP180;10527;52.124;5.196;2023-02-28T05:49:08;103043.00;;;13.70
20733;BMP180;10527;52.124;5.196;2023-02-28T05:51:35;103044.00;;;13.70
20733;BMP180;10527;52.124;5.196;2023-02-28T05:54:06;103043.00;;;13.70
20733;BMP180;10527;52.124;5.196;2023-02-28T05:56:33;103047.00;;;13.60
20733;BMP180;10527;52.124;5.196;2023-02-28T05:59:11;103044.00;;;13.60
20733;BMP180;10527;52.124;5.196;2023-02-28T06:01:44;103047.00;;;13.60
20733;BMP180;10527;52.124;5.196;2023-02-28T06:04:20;103044.00;;;13.60
20733;BMP180;10527;52.124;5.196;2023-02-28T06:06:57;103039.00;;;13.60
20733;BMP180;10527;52.124;5.196;2023-02-28T06:09:24;103049.00;;;13.50
20733;BMP180;10527;52.124;5.196;2023-02-28T06:11:51;103042.00;;;13.50
20733;BMP180;10527;52.124;5.196;2023-02-28T06:14:21;103049.00;;;13.50
20733;BMP180;10527;52.124;5.196;2023-02-28T06:16:48;103048.00;;;13.50
20733;BMP180;10527;52.124;5.196;2023-02-28T06:19:16;103052.00;;;13.50
20733;BMP180;10527;52.124;5.196;2023-02-28T06:21:43;103059.00;;;13.50
20733;BMP180;10527;52.124;5.196;2023-02-28T06:24:10;103047.00;;;13.40
20733;BMP180;10527;52.124;5.196;2023-02-28T06:26:43;103049.00;;;13.40
20733;BMP180;10527;52.124;5.196;2023-02-28T06:29:10;103042.00;;;13.40
20733;BMP180;10527;52.124;5.196;2023-02-28T06:31:37;103051.00;;;13.40
20733;BMP180;10527;52.124;5.196;2023-02-28T06:34:08;103050.00;;;13.40
20733;BMP180;10527;52.124;5.196;2023-02-28T06:36:39;103043.00;;;13.50
20733;BMP180;10527;52.124;5.196;2023-02-28T06:39:07;103053.00;;;13.50
20733;BMP180;10527;52.124;5.196;2023-02-28T06:41:35;103044.00;;;13.50
20733;BMP180;10527;52.124;5.196;2023-02-28T06:44:22;103045.00;;;13.60
20733;BMP180;10527;52.124;5.196;2023-02-28T06:46:49;103045.00;;;13.60
20733;BMP180;10527;52.124;5.196;2023-02-28T06:49:16;103047.00;;;13.60
20733;BMP180;10527;52.124;5.196;2023-02-28T06:51:44;103051.00;;;13.60
20733;BMP180;10527;52.124;5.196;2023-02-28T06:54:12;103058.00;;;13.60
20733;BMP180;10527;52.124;5.196;2023-02-28T06:56:42;103054.00;;;13.60
20733;BMP180;10527;52.124;5.196;2023-02-28T06:59:09;103050.00;;;13.60
20733;BMP180;10527;52.124;5.196;2023-02-28T07:01:36;103057.00;;;13.60
20733;BMP180;10527;52.124;5.196;2023-02-28T07:04:06;103051.00;;;13.60
20733;BMP180;10527;52.124;5.196;2023-02-28T07:06:34;103052.00;;;13.60
20733;BMP180;10527;52.124;5.196;2023-02-28T07:09:00;103058.00;;;13.60
20733;BMP180;10527;52.124;5.196;2023-02-28T07:11:28;103058.00;;;13.60
20733;BMP180;10527;52.124;5.196;2023-02-28T07:13:56;103051.00;;;13.60
20733;BMP180;10527;52.124;5.196;2023-02-28T07:16:25;103056.00;;;13.60
20733;BMP180;10527;52.124;5.196;2023-02-28T07:18:55;103059.00;;;13.50
20733;BMP180;10527;52.124;5.196;2023-02-28T07:21:22;103066.00;;;13.50
20733;BMP180;10527;52.124;5.196;2023-02-28T07:23:50;103043.00;;;13.40
20733;BMP180;10527;52.124;5.196;2023-02-28T07:26:19;103043.00;;;13.50
20733;BMP180;10527;52.124;5.196;2023-02-28T07:28:50;103051.00;;;13.50
20733;BMP180;10527;52.124;5.196;2023-02-28T07:31:18;103050.00;;;13.40
20733;BMP180;10527;52.124;5.196;2023-02-28T07:33:45;103066.00;;;13.40
20733;BMP180;10527;52.124;5.196;2023-02-28T07:36:15;103059.00;;;13.40
20733;BMP180;10527;52.124;5.196;2023-02-28T07:38:48;103066.00;;;13.30
20733;BMP180;10527;52.124;5.196;2023-02-28T07:41:20;103044.00;;;13.30
20733;BMP180;10527;52.124;5.196;2023-02-28T07:43:48;103052.00;;;13.20
20733;BMP180;10527;52.124;5.196;2023-02-28T07:46:16;103057.00;;;13.20
20733;BMP180;10527;52.124;5.196;2023-02-28T07:48:44;103060.00;;;13.20
20733;BMP180;10527;52.124;5.196;2023-02-28T07:51:11;103063.00;;;13.20
20733;BMP180;10527;52.124;5.196;2023-02-28T07:53:38;103079.00;;;13.20
20733;BMP180;10527;52.124;5.196;2023-02-28T07:56:06;103066.00;;;13.20
20733;BMP180;10527;52.124;5.196;2023-02-28T07:58:33;103060.00;;;13.20
20733;BMP180;10527;52.124;5.196;2023-02-28T08:01:09;103061.00;;;13.20
20733;BMP180;10527;52.124;5.196;2023-02-28T08:03:36;103072.00;;;13.20
20733;BMP180;10527;52.124;5.196;2023-02-28T08:06:05;103073.00;;;13.20
20733;BMP180;10527;52.124;5.196;2023-02-28T08:08:33;103075.00;;;13.30
20733;BMP180;10527;52.124;5.196;2023-02-28T08:11:03;103066.00;;;13.30
20733;BMP180;10527;52.124;5.196;2023-02-28T08:13:30;103079.00;;;13.30
20733;BMP180;10527;52.124;5.196;2023-02-28T08:15:57;103080.00;;;13.40
20733;BMP180;10527;52.124;5.196;2023-02-28T08:18:24;103090.00;;;13.40
20733;BMP180;10527;52.124;5.196;2023-02-28T08:20:51;103088.00;;;13.40
20733;BMP180;10527;52.124;5.196;2023-02-28T08:23:18;103088.00;;;13.50
20733;BMP180;10527;52.124;5.196;2023-02-28T08:25:56;103081.00;;;13.50
20733;BMP180;10527;52.124;5.196;2023-02-28T08:28:23;103094.00;;;13.60
20733;BMP180;10527;52.124;5.196;2023-02-28T08:30:53;103085.00;;;13.60
20733;BMP180;10527;52.124;5.196;2023-02-28T08:33:21;103097.00;;;13.70
20733;BMP180;10527;52.124;5.196;2023-02-28T08:35:53;103087.00;;;13.70
20733;BMP180;10527;52.124;5.196;2023-02-28T08:38:21;103085.00;;;13.70
20733;BMP180;10527;52.124;5.196;2023-02-28T08:40:49;103082.00;;;13.70
20733;BMP180;10527;52.124;5.196;2023-02-28T08:43:16;103087.00;;;13.80
20733;BMP180;10527;52.124;5.196;2023-02-28T08:45:43;103088.00;;;13.80
20733;BMP180;10527;52.124;5.196;2023-02-28T08:48:10;103102.00;;;13.80
20733;BMP180;10527;52.124;5.196;2023-02-28T08:50:36;103093.00;;;13.90
20733;BMP180;10527;52.124;5.196;2023-02-28T08:53:03;103086.00;;;13.90
20733;BMP180;10527;52.124;5.196;2023-02-28T08:55:30;103094.00;;;14.00
20733;BMP180;10527;52.124;5.196;2023-02-28T08:57:57;103091.00;;;14.00
20733;BMP180;10527;52.124;5.196;2023-02-28T09:00:25;103085.00;;;14.00
20733;BMP180;10527;52.124;5.196;2023-02-28T09:02:52;103080.00;;;14.10
20733;BMP180;10527;52.124;5.196;2023-02-28T09:05:18;103073.00;;;14.10
20733;BMP180;10527;52.124;5.196;2023-02-28T09:07:45;103084.00;;;14.10
20733;BMP180;10527;52.124;5.196;2023-02-28T09:10:12;103089.00;;;14.20
20733;BMP180;10527;52.124;5.196;2023-02-28T09:12:39;103089.00;;;14.20
20733;BMP180;10527;52.124;5.196;2023-02-28T09:15:07;103097.00;;;14.20
20733;BMP180;10527;52.124;5.196;2023-02-28T09:17:34;103094.00;;;14.20
20733;BMP180;10527;52.124;5.196;2023-02-28T09:20:01;103074.00;;;14.20
20733;BMP180;10527;52.124;5.196;2023-02-28T09:22:28;103083.00;;;14.20
20733;BMP180;10527;52.124;5.196;2023-02-28T09:24:57;103085.00;;;14.30
20733;BMP180;10527;52.124;5.196;2023-02-28T09:27:24;103068.00;;;14.30
20733;BMP180;10527;52.124;5.196;2023-02-28T09:29:51;103084.00;;;14.30
20733;BMP180;10527;52.124;5.196;2023-02-28T09:32:18;103080.00;;;14.30
20733;BMP180;10527;52.124;5.196;2023-02-28T09:34:45;103086.00;;;14.30
20733;BMP180;10527;52.124;5.196;2023-02-28T09:37:12;103092.00;;;14.20
20733;BMP180;10527;52.124;5.196;2023-02-28T09:39:38;103079.00;;;14.20
20733;BMP180;10527;52.124;5.196;2023-02-28T09:42:06;103088.00;;;14.30
20733;BMP180;10527;52.124;5.196;2023-02-28T09:44:44;103084.00;;;14.30
20733;BMP180;10527;52.124;5.196;2023-02-28T09:47:42;103094.00;;;14.40
20733;BMP180;10527;52.124;5.196;2023-02-28T09:52:49;103097.00;;;14.60
20733;BMP180;10527;52.124;5.196;2023-02-28T09:55:30;103099.00;;;14.60
20733;BMP180;10527;52.124;5.196;2023-02-28T09:58:42;103098.00;;;14.70
20733;BMP180;10527;52.124;5.196;2023-02-28T10:08:11;103096.00;;;15.00
20733;BMP180;10527;52.124;5.196;2023-02-28T10:10:44;103096.00;;;15.10
20733;BMP180;10527;52.124;5.196;2023-02-28T10:13:36;103085.00;;;15.20
20733;BMP180;10527;52.124;5.196;2023-02-28T10:16:22;103094.00;;;15.30
20733;BMP180;10527;52.124;5.196;2023-02-28T10:21:53;103091.00;;;15.40
20733;BMP180;10527;52.124;5.196;2023-02-28T10:24:42;103090.00;;;15.40
20733;BMP180;10527;52.124;5.196;2023-02-28T10:27:18;103087.00;;;15.40
20733;BMP180;10527;52.124;5.196;2023-02-28T10:29:58;103080.00;;;15.50
20733;BMP180;10527;52.124;5.196;2023-02-28T10:32:31;103080.00;;;15.50
20733;BMP180;10527;52.124;5.196;2023-02-28T10:35:18;103072.00;;;15.60
20733;BMP180;10527;52.124;5.196;2023-02-28T10:37:57;103074.00;;;15.60
20733;BMP180;10527;52.124;5.196;2023-02-28T10:40:32;103073.00;;;15.70
20733;BMP180;10527;52.124;5.196;2023-02-28T10:43:00;103076.00;;;15.90
20733;BMP180;10527;52.124;5.196;2023-02-28T10:48:39;103073.00;;;16.20
20733;BMP180;10527;52.124;5.196;2023-02-28T10:51:11;103058.00;;;16.30
20733;BMP180;10527;52.124;5.196;2023-02-28T10:53:54;103075.00;;;16.50
20733;BMP180;10527;52.124;5.196;2023-02-28T10:56:29;103068.00;;;16.70
20733;BMP180;10527;52.124;5.196;2023-02-28T10:59:29;103063.00;;;16.90
20733;BMP180;10527;52.124;5.196;2023-02-28T11:01:56;103061.00;;;16.90
20733;BMP180;10527;52.124;5.196;2023-02-28T11:09:44;103044.00;;;17.00
20733;BMP180;10527;52.124;5.196;2023-02-28T11:12:26;103048.00;;;17.00
20733;BMP180;10527;52.124;5.196;2023-02-28T11:14:58;103052.00;;;17.00
20733;BMP180;10527;52.124;5.196;2023-02-28T11:17:29;103041.00;;;17.00
20733;BMP180;10527;52.124;5.196;2023-02-28T11:20:07;103044.00;;;17.00
20733;BMP180;10527;52.124;5.196;2023-02-28T11:22:46;103040.00;;;17.00
20733;BMP180;10527;52.124;5.196;2023-02-28T11:25:25;103036.00;;;17.10
20733;BMP180;10527;52.124;5.196;2023-02-28T11:28:00;103037.00;;;17.10
20733;BMP180;10527;52.124;5.196;2023-02-28T11:30:41;103028.00;;;17.10
20733;BMP180;10527;52.124;5.196;2023-02-28T11:33:25;103035.00;;;17.20
20733;BMP180;10527;52.124;5.196;2023-02-28T11:36:30;103029.00;;;17.20
20733;BMP180;10527;52.124;5.196;2023-02-28T11:39:10;103028.00;;;17.20
20733;BMP180;10527;52.124;5.196;2023-02-28T11:42:14;103023.00;;;17.20
20733;BMP180;10527;52.124;5.196;2023-02-28T11:48:03;103019.00;;;17.20
20733;BMP180;10527;52.124;5.196;2023-02-28T11:50:49;103016.00;;;17.30
20733;BMP180;10527;52.124;5.196;2023-02-28T11:53:47;103019.00;;;17.30
20733;BMP180;10527;52.124;5.196;2023-02-28T12:02:47;103012.00;;;17.50
20733;BMP180;10527;52.124;5.196;2023-02-28T12:05:32;103011.00;;;17.50
20733;BMP180;10527;52.124;5.196;2023-02-28T12:08:47;103007.00;;;17.50
20733;BMP180;10527;52.124;5.196;2023-02-28T12:11:45;103009.00;;;17.60
20733;BMP180;10527;52.124;5.196;2023-02-28T12:15:05;102997.00;;;17.60
20733;BMP180;10527;52.124;5.196;2023-02-28T12:26:40;103005.00;;;17.80
20733;BMP180;10527;52.124;5.196;2023-02-28T12:29:43;103001.00;;;17.80
20733;BMP180;10527;52.124;5.196;2023-02-28T12:35:02;102999.00;;;17.90
20733;BMP180;10527;52.124;5.196;2023-02-28T12:37:38;102984.00;;;18.00
20733;BMP180;10527;52.124;5.196;2023-02-28T12:40:19;102986.00;;;18.00
20733;BMP180;10527;52.124;5.196;2023-02-28T12:43:02;102976.00;;;18.00
20733;BMP180;10527;52.124;5.196;2023-02-28T12:46:08;102977.00;;;18.00
20733;BMP180;10527;52.124;5.196;2023-02-28T12:48:40;102978.00;;;18.10
20733;BMP180;10527;52.124;5.196;2023-02-28T12:51:09;102983.00;;;18.10
20733;BMP180;10527;52.124;5.196;2023-02-28T12:57:31;102978.00;;;18.10
20733;BMP180;10527;52.124;5.196;2023-02-28T13:00:12;102974.00;;;18.10
20733;BMP180;10527;52.124;5.196;2023-02-28T13:02:50;102975.00;;;18.20
20733;BMP180;10527;52.124;5.196;2023-02-28T13:06:01;102971.00;;;18.20
20733;BMP180;10527;52.124;5.196;2023-02-28T13:11:53;102969.00;;;18.30
20733;BMP180;10527;52.124;5.196;2023-02-28T13:17:14;102955.00;;;18.40
20733;BMP180;10527;52.124;5.196;2023-02-28T13:19:58;102965.00;;;18.40
20733;BMP180;10527;52.124;5.196;2023-02-28T13:24:56;102954.00;;;18.50
20733;BMP180;10527;52.124;5.196;2023-02-28T13:27:39;102963.00;;;18.50
20733;BMP180;10527;52.124;5.196;2023-02-28T13:34:05;102954.00;;;18.50
20733;BMP180;10527;52.124;5.196;2023-02-28T13:36:28;102954.00;;;18.50
20733;BMP180;10527;52.124;5.196;2023-02-28T13:39:44;102951.00;;;18.60
20733;BMP180;10527;52.124;5.196;2023-02-28T13:41:50;102948.00;;;18.60
20733;BMP180;10527;52.124;5.196;2023-02-28T13:44:20;102954.00;;;18.60
20733;BMP180;10527;52.124;5.196;2023-02-28T13:49:25;102952.00;;;18.70
20733;BMP180;10527;52.124;5.196;2023-02-28T13:51:54;102946.00;;;18.70
20733;BMP180;10527;52.124;5.196;2023-02-28T13:54:55;102935.00;;;18.80
20733;BMP180;10527;52.124;5.196;2023-02-28T13:58:17;102923.00;;;18.80
20733;BMP180;10527;52.124;5.196;2023-02-28T14:01:22;102932.00;;;18.90
20733;BMP180;10527;52.124;5.196;2023-02-28T14:07:45;102934.00;;;18.90
20733;BMP180;10527;52.124;5.196;2023-02-28T14:10:27;102924.00;;;18.90
20733;BMP180;10527;52.124;5.196;2023-02-28T14:13:46;102919.00;;;19.00
20733;BMP180;10527;52.124;5.196;2023-02-28T14:15:59;102923.00;;;19.00
20733;BMP180;10527;52.124;5.196;2023-02-28T14:18:34;102918.00;;;19.10
20733;BMP180;10527;52.124;5.196;2023-02-28T14:21:33;102918.00;;;19.10
20733;BMP180;10527;52.124;5.196;2023-02-28T14:27:40;102903.00;;;19.10
20733;BMP180;10527;52.124;5.196;2023-02-28T14:36:36;102913.00;;;19.10
20733;BMP180;10527;52.124;5.196;2023-02-28T14:39:21;102912.00;;;19.10
20733;BMP180;10527;52.124;5.196;2023-02-28T14:41:49;102914.00;;;19.10
20733;BMP180;10527;52.124;5.196;2023-02-28T14:44:23;102921.00;;;19.20
20733;BMP180;10527;52.124;5.196;2023-02-28T14:46:57;102904.00;;;19.20
20733;BMP180;10527;52.124;5.196;2023-02-28T14:49:36;102915.00;;;19.20
20733;BMP180;10527;52.124;5.196;2023-02-28T14:54:58;102909.00;;;19.30
20733;BMP180;10527;52.124;5.196;2023-02-28T14:57:33;102916.00;;;19.30
20733;BMP180;10527;52.124;5.196;2023-02-28T15:02:39;102905.00;;;19.30
20733;BMP180;10527;52.124;5.196;2023-02-28T15:05:19;102908.00;;;19.30
20733;BMP180;10527;52.124;5.196;2023-02-28T15:07:49;102916.00;;;19.30
20733;BMP180;10527;52.124;5.196;2023-02-28T15:10:27;102905.00;;;19.30
20733;BMP180;10527;52.124;5.196;2023-02-28T15:13:05;102913.00;;;19.30
20733;BMP180;10527;52.124;5.196;2023-02-28T15:16:02;102915.00;;;19.30
20733;BMP180;10527;52.124;5.196;2023-02-28T15:21:12;102919.00;;;19.30
20733;BMP180;10527;52.124;5.196;2023-02-28T15:23:43;102904.00;;;19.30
20733;BMP180;10527;52.124;5.196;2023-02-28T15:26:20;102905.00;;;19.40
20733;BMP180;10527;52.124;5.196;2023-02-28T15:28:54;102913.00;;;19.40
20733;BMP180;10527;52.124;5.196;2023-02-28T15:31:33;102917.00;;;19.40
20733;BMP180;10527;52.124;5.196;2023-02-28T15:34:43;102903.00;;;19.40
20733;BMP180;10527;52.124;5.196;2023-02-28T15:42:41;102923.00;;;19.40
20733;BMP180;10527;52.124;5.196;2023-02-28T15:45:36;102917.00;;;19.40
20733;BMP180;10527;52.124;5.196;2023-02-28T15:48:21;102915.00;;;19.30
20733;BMP180;10527;52.124;5.196;2023-02-28T15:51:01;102912.00;;;19.30
20733;BMP180;10527;52.124;5.196;2023-02-28T15:53:34;102905.00;;;19.30
20733;BMP180;10527;52.124;5.196;2023-02-28T15:56:06;102906.00;;;19.30
20733;BMP180;10527;52.124;5.196;2023-02-28T15:58:41;102905.00;;;19.40
20733;BMP180;10527;52.124;5.196;2023-02-28T16:01:31;102907.00;;;19.40
20733;BMP180;10527;52.124;5.196;2023-02-28T16:04:16;102912.00;;;19.30
20733;BMP180;10527;52.124;5.196;2023-02-28T16:07:01;102899.00;;;19.30
20733;BMP180;10527;52.124;5.196;2023-02-28T16:09:28;102905.00;;;19.20
20733;BMP180;10527;52.124;5.196;2023-02-28T16:12:02;102905.00;;;19.20
20733;BMP180;10527;52.124;5.196;2023-02-28T16:14:31;102901.00;;;19.20
20733;BMP180;10527;52.124;5.196;2023-02-28T16:17:26;102901.00;;;19.10
20733;BMP180;10527;52.124;5.196;2023-02-28T16:19:55;102886.00;;;19.10
20733;BMP180;10527;52.124;5.196;2023-02-28T16:22:22;102905.00;;;19.10
20733;BMP180;10527;52.124;5.196;2023-02-28T16:24:49;102912.00;;;19.00
20733;BMP180;10527;52.124;5.196;2023-02-28T16:27:30;102908.00;;;18.90